sensor_id;sensor_type;location;lat;lon;timestamp;pressure;altitude;pressure_sealevel;temperature;humidity
61474;BME280;53694;49.784;30.150;2024-01-25T21:35:49;98538.64;;;5.82;72.81
61474;BME280;53694;49.784;30.150;2024-01-25T21:36:51;98542.65;;;5.88;72.18
61474;BME280;53694;49.784;30.150;2024-01-25T21:37:52;98537.02;;;5.97;71.09
61474;BME280;53694;49.784;30.150;2024-01-25T21:38:54;98536.61;;;5.95;71.11
61474;BME280;53694;49.784;30.150;2024-01-25T21:39:55;98538.52;;;5.94;70.67
61474;BME280;53694;49.784;30.150;2024-01-25T21:40:57;98542.05;;;5.95;70.35
61474;BME280;53694;49.784;30.150;2024-01-25T21:41:58;98539.05;;;6.00;70.22
61474;BME280;53694;49.784;30.150;2024-01-25T21:43:00;98552.80;;;6.07;69.98
61474;BME280;53694;49.784;30.150;2024-01-25T21:44:02;98539.70;;;6.13;69.17
61474;BME280;53694;49.784;30.150;2024-01-25T21:45:05;98538.25;;;6.19;69.27
61474;BME280;53694;49.784;30.150;2024-01-25T21:46:07;98547.66;;;6.21;69.17
61474;BME280;53694;49.784;30.150;2024-01-25T21:47:08;98547.80;;;6.09;68.79
61474;BME280;53694;49.784;30.150;2024-01-25T21:48:10;98554.11;;;5.78;69.10
61474;BME280;53694;49.784;30.150;2024-01-25T21:49:11;98550.13;;;5.40;69.84
61474;BME280;53694;49.784;30.150;2024-01-25T21:50:14;98556.53;;;5.00;70.93
61474;BME280;53694;49.784;30.150;2024-01-25T21:51:15;98559.38;;;4.60;72.29
61474;BME280;53694;49.784;30.150;2024-01-25T21:52:17;98557.59;;;4.24;73.55
61474;BME280;53694;49.784;30.150;2024-01-25T21:53:18;98556.08;;;3.98;74.58
61474;BME280;53694;49.784;30.150;2024-01-25T21:54:20;98555.89;;;3.91;75.23
61474;BME280;53694;49.784;30.150;2024-01-25T21:55:23;98565.84;;;3.99;75.42
61474;BME280;53694;49.784;30.150;2024-01-25T21:56:26;98562.48;;;4.18;75.04
61474;BME280;53694;49.784;30.150;2024-01-25T21:57:27;98559.59;;;4.39;74.45
61474;BME280;53694;49.784;30.150;2024-01-25T21:58:29;98568.75;;;4.63;74.02
61474;BME280;53694;49.784;30.150;2024-01-25T21:59:30;98568.63;;;4.87;72.98
61474;BME280;53694;49.784;30.150;2024-01-25T22:00:32;98575.08;;;5.11;72.01
61474;BME280;53694;49.784;30.150;2024-01-25T22:01:34;98570.43;;;5.27;70.91
61474;BME280;53694;49.784;30.150;2024-01-25T22:02:35;98571.64;;;5.45;70.52
61474;BME280;53694;49.784;30.150;2024-01-25T22:03:37;98577.50;;;5.63;69.78
61474;BME280;53694;49.784;30.150;2024-01-25T22:04:39;98567.00;;;5.81;69.21
61474;BME280;53694;49.784;30.150;2024-01-25T22:05:40;98585.99;;;5.93;68.58
61474;BME280;53694;49.784;30.150;2024-01-25T22:06:42;98582.56;;;5.96;68.21
61474;BME280;53694;49.784;30.150;2024-01-25T22:07:44;98574.19;;;5.89;67.81
61474;BME280;53694;49.784;30.150;2024-01-25T22:08:46;98579.44;;;5.63;68.02
61474;BME280;53694;49.784;30.150;2024-01-25T22:09:47;98577.88;;;5.30;68.92
61474;BME280;53694;49.784;30.150;2024-01-25T22:10:49;98585.15;;;4.94;69.63
61474;BME280;53694;49.784;30.150;2024-01-25T22:11:51;98569.73;;;4.55;70.88
61474;BME280;53694;49.784;30.150;2024-01-25T22:12:52;98566.45;;;4.21;72.09
61474;BME280;53694;49.784;30.150;2024-01-25T22:13:53;98572.52;;;3.90;73.30
61474;BME280;53694;49.784;30.150;2024-01-25T22:14:55;98580.80;;;3.69;74.40
61474;BME280;53694;49.784;30.150;2024-01-25T22:15:56;98576.08;;;3.66;75.09
61474;BME280;53694;49.784;30.150;2024-01-25T22:16:58;98574.34;;;3.73;75.05
61474;BME280;53694;49.784;30.150;2024-01-25T22:18:00;98571.41;;;3.91;74.73
61474;BME280;53694;49.784;30.150;2024-01-25T22:19:01;98572.82;;;4.13;74.31
61474;BME280;53694;49.784;30.150;2024-01-25T22:20:04;98571.61;;;4.38;73.66
61474;BME280;53694;49.784;30.150;2024-01-25T22:21:06;98569.47;;;4.60;72.55
61474;BME280;53694;49.784;30.150;2024-01-25T22:22:07;98568.89;;;4.82;71.88
61474;BME280;53694;49.784;30.150;2024-01-25T22:23:09;98569.45;;;5.04;71.09
61474;BME280;53694;49.784;30.150;2024-01-25T22:24:11;98571.91;;;5.24;70.16
61474;BME280;53694;49.784;30.150;2024-01-25T22:25:13;98580.51;;;5.42;69.34
61474;BME280;53694;49.784;30.150;2024-01-25T22:26:15;98579.72;;;5.58;68.73
61474;BME280;53694;49.784;30.150;2024-01-25T22:27:17;98581.55;;;5.69;68.17
61474;BME280;53694;49.784;30.150;2024-01-25T22:28:19;98588.99;;;5.72;67.34
61474;BME280;53694;49.784;30.150;2024-01-25T22:29:21;98586.83;;;5.62;67.30
61474;BME280;53694;49.784;30.150;2024-01-25T22:30:24;98590.98;;;5.40;67.52
61474;BME280;53694;49.784;30.150;2024-01-25T22:31:25;98588.23;;;5.09;68.27
61474;BME280;53694;49.784;30.150;2024-01-25T22:32:27;98586.62;;;4.76;69.19
61474;BME280;53694;49.784;30.150;2024-01-25T22:33:28;98596.96;;;4.42;70.16
61474;BME280;53694;49.784;30.150;2024-01-25T22:34:30;98589.45;;;4.11;71.32
61474;BME280;53694;49.784;30.150;2024-01-25T22:35:31;98595.95;;;3.82;72.30
61474;BME280;53694;49.784;30.150;2024-01-25T22:36:33;98594.17;;;3.62;73.10
61474;BME280;53694;49.784;30.150;2024-01-25T22:37:35;98597.56;;;3.59;73.57
61474;BME280;53694;49.784;30.150;2024-01-25T22:38:36;98587.02;;;3.69;73.61
61474;BME280;53694;49.784;30.150;2024-01-25T22:39:38;98586.09;;;3.90;73.24
61474;BME280;53694;49.784;30.150;2024-01-25T22:40:40;98582.19;;;4.15;72.43
61474;BME280;53694;49.784;30.150;2024-01-25T22:41:41;98590.73;;;4.42;71.88
61474;BME280;53694;49.784;30.150;2024-01-25T22:42:43;98585.96;;;4.67;70.84
61474;BME280;53694;49.784;30.150;2024-01-25T22:43:44;98591.64;;;4.90;69.65
61474;BME280;53694;49.784;30.150;2024-01-25T22:44:46;98583.67;;;5.13;69.01
61474;BME280;53694;49.784;30.150;2024-01-25T22:45:47;98582.27;;;5.35;68.10
61474;BME280;53694;49.784;30.150;2024-01-25T22:46:49;98587.98;;;5.45;66.96
61474;BME280;53694;49.784;30.150;2024-01-25T22:47:51;98585.44;;;5.37;67.02
61474;BME280;53694;49.784;30.150;2024-01-25T22:48:52;98577.95;;;5.18;67.37
61474;BME280;53694;49.784;30.150;2024-01-25T22:49:54;98584.70;;;4.92;67.79
61474;BME280;53694;49.784;30.150;2024-01-25T22:50:55;98579.89;;;4.58;68.48
61474;BME280;53694;49.784;30.150;2024-01-25T22:51:57;98583.20;;;4.23;69.69
61474;BME280;53694;49.784;30.150;2024-01-25T22:52:58;98584.52;;;3.89;70.79
61474;BME280;53694;49.784;30.150;2024-01-25T22:54:00;98579.70;;;3.58;72.00
61474;BME280;53694;49.784;30.150;2024-01-25T22:55:02;98585.79;;;3.30;73.13
61474;BME280;53694;49.784;30.150;2024-01-25T22:56:05;98588.36;;;3.14;74.09
61474;BME280;53694;49.784;30.150;2024-01-25T22:57:07;98586.00;;;3.13;74.70
61474;BME280;53694;49.784;30.150;2024-01-25T22:58:08;98593.49;;;3.28;74.81
61474;BME280;53694;49.784;30.150;2024-01-25T22:59:12;98584.11;;;3.50;74.38
61474;BME280;53694;49.784;30.150;2024-01-25T23:00:14;98587.14;;;3.73;73.50
61474;BME280;53694;49.784;30.150;2024-01-25T23:01:16;98581.67;;;3.97;72.81
61474;BME280;53694;49.784;30.150;2024-01-25T23:02:18;98583.98;;;4.23;72.00
61474;BME280;53694;49.784;30.150;2024-01-25T23:03:19;98590.02;;;4.45;70.96
61474;BME280;53694;49.784;30.150;2024-01-25T23:04:21;98582.81;;;4.65;70.46
61474;BME280;53694;49.784;30.150;2024-01-25T23:05:22;98588.03;;;4.86;69.45
61474;BME280;53694;49.784;30.150;2024-01-25T23:06:25;98588.39;;;5.00;68.74
61474;BME280;53694;49.784;30.150;2024-01-25T23:07:26;98588.33;;;5.12;68.07
61474;BME280;53694;49.784;30.150;2024-01-25T23:08:28;98594.22;;;5.14;67.80
61474;BME280;53694;49.784;30.150;2024-01-25T23:09:30;98585.34;;;5.01;67.63
61474;BME280;53694;49.784;30.150;2024-01-25T23:10:32;98584.78;;;4.80;67.93
61474;BME280;53694;49.784;30.150;2024-01-25T23:11:33;98593.20;;;4.47;68.63
61474;BME280;53694;49.784;30.150;2024-01-25T23:12:35;98593.77;;;4.12;69.69
61474;BME280;53694;49.784;30.150;2024-01-25T23:13:36;98600.83;;;3.76;70.73
61474;BME280;53694;49.784;30.150;2024-01-25T23:14:43;98594.73;;;3.43;71.94
61474;BME280;53694;49.784;30.150;2024-01-25T23:15:44;98600.70;;;3.12;73.22
61474;BME280;53694;49.784;30.150;2024-01-25T23:16:46;98599.85;;;2.87;74.58
61474;BME280;53694;49.784;30.150;2024-01-25T23:17:48;98599.72;;;2.83;75.27
61474;BME280;53694;49.784;30.150;2024-01-25T23:18:49;98590.05;;;2.94;75.56
61474;BME280;53694;49.784;30.150;2024-01-25T23:19:51;98600.03;;;3.15;75.39
61474;BME280;53694;49.784;30.150;2024-01-25T23:20:52;98601.17;;;3.38;74.96
61474;BME280;53694;49.784;30.150;2024-01-25T23:21:54;98597.80;;;3.66;74.44
61474;BME280;53694;49.784;30.150;2024-01-25T23:22:56;98600.93;;;3.92;73.70
61474;BME280;53694;49.784;30.150;2024-01-25T23:23:57;98596.24;;;4.17;73.08
61474;BME280;53694;49.784;30.150;2024-01-25T23:25:00;98603.97;;;4.43;72.36
61474;BME280;53694;49.784;30.150;2024-01-25T23:26:02;98589.03;;;4.65;71.06
61474;BME280;53694;49.784;30.150;2024-01-25T23:27:04;98591.80;;;4.81;70.74
61474;BME280;53694;49.784;30.150;2024-01-25T23:28:07;98610.06;;;4.96;70.05
61474;BME280;53694;49.784;30.150;2024-01-25T23:29:08;98608.00;;;5.06;69.45
61474;BME280;53694;49.784;30.150;2024-01-25T23:30:10;98604.23;;;5.10;69.12
61474;BME280;53694;49.784;30.150;2024-01-25T23:31:14;98605.90;;;5.15;69.12
61474;BME280;53694;49.784;30.150;2024-01-25T23:32:15;98604.30;;;5.14;69.13
61474;BME280;53694;49.784;30.150;2024-01-25T23:33:17;98612.45;;;4.98;69.37
61474;BME280;53694;49.784;30.150;2024-01-25T23:34:18;98602.84;;;4.72;69.98
61474;BME280;53694;49.784;30.150;2024-01-25T23:35:20;98603.77;;;4.36;70.78
61474;BME280;53694;49.784;30.150;2024-01-25T23:36:21;98607.38;;;4.00;71.91
61474;BME280;53694;49.784;30.150;2024-01-25T23:37:23;98600.83;;;3.64;73.12
61474;BME280;53694;49.784;30.150;2024-01-25T23:38:25;98601.17;;;3.38;74.25
61474;BME280;53694;49.784;30.150;2024-01-25T23:39:26;98609.77;;;3.28;75.19
61474;BME280;53694;49.784;30.150;2024-01-25T23:40:29;98605.25;;;3.32;75.56
61474;BME280;53694;49.784;30.150;2024-01-25T23:41:31;98605.70;;;3.46;75.42
61474;BME280;53694;49.784;30.150;2024-01-25T23:42:32;98604.02;;;3.66;75.13
61474;BME280;53694;49.784;30.150;2024-01-25T23:43:34;98606.48;;;3.84;74.50
61474;BME280;53694;49.784;30.150;2024-01-25T23:44:35;98602.05;;;4.04;73.94
61474;BME280;53694;49.784;30.150;2024-01-25T23:45:37;98607.66;;;4.23;73.57
61474;BME280;53694;49.784;30.150;2024-01-25T23:46:38;98607.13;;;4.45;73.05
61474;BME280;53694;49.784;30.150;2024-01-25T23:47:40;98606.14;;;4.66;72.29
61474;BME280;53694;49.784;30.150;2024-01-25T23:48:41;98619.44;;;4.83;71.46
61474;BME280;53694;49.784;30.150;2024-01-25T23:49:43;98606.92;;;4.94;70.86
61474;BME280;53694;49.784;30.150;2024-01-25T23:50:45;98611.14;;;5.08;70.18
61474;BME280;53694;49.784;30.150;2024-01-25T23:51:46;98607.47;;;5.16;69.82
61474;BME280;53694;49.784;30.150;2024-01-25T23:52:48;98611.59;;;5.25;69.50
61474;BME280;53694;49.784;30.150;2024-01-25T23:53:50;98615.30;;;5.33;69.00
61474;BME280;53694;49.784;30.150;2024-01-25T23:54:51;98615.66;;;5.32;68.78
61474;BME280;53694;49.784;30.150;2024-01-25T23:55:53;98614.48;;;5.17;68.69
61474;BME280;53694;49.784;30.150;2024-01-25T23:56:55;98619.17;;;4.88;69.18
61474;BME280;53694;49.784;30.150;2024-01-25T23:57:56;98622.07;;;4.51;70.09
61474;BME280;53694;49.784;30.150;2024-01-25T23:58:58;98628.39;;;4.15;71.34
61474;BME280;53694;49.784;30.150;2024-01-25T23:59:59;98622.23;;;3.78;72.44
